South Gibson, Pennsylvania
Current Conditions -  °F | °C
As of 2:54 AM on Tuesday 21 Oct 2014 (Local Time) from KAVP Reporting Station
Overcast Overcast  
Wind Chill: 53°   Ceiling: 6500
Heat Index: 53°   Visibility: 10mi
Dew Point: 45°   Wind: 5mph
Humidity: 74%   Direction: 190°S
Pressure: 29.87"   Gusts: NA
Location:  41.73°N, 75.63°W
Report Text: KAVP 210654Z AUTO 19004KT 10SM BKN065 OVC080 12/07 A2987 RMK AO2 RAB23E54 SLP112 P0000 T01170072
Loading
Personal Weather Stations






























Interactive Weather Map
Tropical Storm Tracking
New forecast layout! Learn more

10-Day Weather Forecast

Advertisements
Track Severe Weather on mobile